Aéroport Valenciennes-Denain

LFAV · North, Hauts-de-France, Frankrijk

METAR historie LFAV · Valenciennes-Denain Airport

Hieronder zie je METAR's van de afgelopen dagen. Kies een jaar om door oudere METAR's te bladeren, vanaf het jaar 2007.

2 december 2022

Tijd Code Weer Temp. Zicht Plafond Wind METAR/SPECI
00:30
I
2 °C 4,8 km - 360° 360° 3 kt METAR LFQQ 012330Z AUTO 36003KT 4800 BR NSC 02/01 Q1026 TEMPO BKN004
00:00
M
2 °C 5 km - 350° 350° 7 kt METAR LFQQ 012300Z AUTO 35007KT 5000 BR NSC 02/02 Q1026 TEMPO BKN010 BKN020

1 december 2022

Tijd Code Weer Temp. Zicht Plafond Wind METAR/SPECI
23:30
M
3 °C 5 km - 010° 010° 5 kt METAR LFQQ 012230Z AUTO 01005KT 5000 BR NSC 03/02 Q1026 TEMPO BKN010 BKN020
23:00
M
3 °C 6 km - 020° 020° 7 kt METAR LFQQ 012200Z AUTO 02007KT 6000 NSC 03/02 Q1026 TEMPO BKN010 BKN020
22:30
M
3 °C 6 km - 010° 010° 7 kt METAR LFQQ 012130Z AUTO 01007KT 6000 FEW028 03/02 Q1026 TEMPO BKN010 BKN020
22:00
M
3 °C 6 km - 010° 010° 7 kt METAR LFQQ 012100Z AUTO 01007KT 6000 FEW027 03/02 Q1026 NOSIG
21:30
M
3 °C 6 km - 010° 010° 7 kt METAR LFQQ 012030Z AUTO 01007KT 6000 FEW025 03/02 Q1026 NOSIG
21:00
M
3 °C 6 km - 010° 010° 6 kt METAR LFQQ 012000Z AUTO 01006KT 6000 NSC 03/02 Q1026 NOSIG
20:30
M
4 °C 7 km - 010° 010° 6 kt METAR LFQQ 011930Z AUTO 01006KT 7000 NSC 04/03 Q1027 NOSIG
20:00
M
4 °C 7 km - 020° 020° 6 kt METAR LFQQ 011900Z AUTO 02006KT 7000 FEW027 04/03 Q1027 NOSIG
19:30
M
5 °C 7 km 2.700 ft 020° 020° 6 kt METAR LFQQ 011830Z AUTO 02006KT 7000 OVC027 05/03 Q1027 NOSIG
19:00
M
5 °C 8 km 2.500 ft 020° 020° 6 kt METAR LFQQ 011800Z AUTO 02006KT 8000 OVC025 05/04 Q1027 NOSIG
18:30
M
5 °C 8 km 2.500 ft 030° 030° 3 kt METAR LFQQ 011730Z AUTO 03003KT 360V060 8000 OVC025 05/04 Q1027 NOSIG
18:00
V
4 °C 10 km+ - 020° 020° 6 kt METAR LFQQ 011700Z AUTO 02006KT 9999 FEW027 04/02 Q1027 NOSIG
17:30
V
5 °C 9 km - 030° 030° 6 kt METAR LFQQ 011630Z AUTO 03006KT 9000 NSC 05/03 Q1026 NOSIG
17:00
V
5 °C 10 km+ - 020° 020° 5 kt METAR LFQQ 011600Z AUTO 02005KT 9999 FEW017 05/03 Q1026 NOSIG
16:30
V
6 °C 10 km+ - 030° 030° 5 kt METAR LFQQ 011530Z AUTO 03005KT 9999 FEW020 06/03 Q1026 NOSIG
16:00
M
6 °C 10 km+ 1.900 ft 040° 040° 7 kt METAR LFQQ 011500Z AUTO 04007KT 9999 // BKN019 BKN028 06/03 Q1026
15:30
V
7 °C 10 km+ - 040° 040° 7 kt METAR LFQQ 011430Z AUTO 04007KT 9999 FEW016 07/04 Q1026 NOSIG
15:00
M
7 °C 10 km+ 2.100 ft 020° 020° 8 kt METAR LFQQ 011400Z AUTO 02008KT 9999 SCT016 BKN021 BKN027 07/04 Q1026 NOSIG
14:30
M
7 °C 10 km+ 1.400 ft 020° 020° 8 kt METAR LFQQ 011330Z AUTO 02008KT 9999 BKN014 OVC023 07/04 Q1027 BECMG BKN020
14:00
M
7 °C 9 km 2.400 ft 020° 020° 7 kt METAR LFQQ 011300Z AUTO 02007KT 340V050 9000 SCT015 OVC024 07/04 Q1027 NOSIG
13:30
L
7 °C 250 m 1.700 ft 020° 020° 7 kt METAR LFQQ 011230Z AUTO 02007KT 9999 0250 R26/P5000 R08/0275N // BKN017 BKN024 07/04 Q1027
13:00
M
7 °C 10 km+ 1.900 ft 040° 040° 9 kt METAR LFQQ 011200Z AUTO 04009KT 9999 BKN019 BKN026 07/04 Q1027 NOSIG
12:30
V
7 °C 10 km+ - 020° 020° 8 kt METAR LFQQ 011130Z AUTO 02008KT CAVOK 07/04 Q1027 NOSIG
12:00
V
7 °C 10 km+ - 040° 040° 6 kt METAR LFQQ 011100Z AUTO 04006KT 9999 FEW023 07/04 Q1027 BECMG BKN010
11:30
M
6 °C 7 km 2.300 ft 030° 030° 4 kt METAR LFQQ 011030Z AUTO 03004KT 7000 OVC023 06/04 Q1028 BECMG BKN010
11:00
M
5 °C 6 km 2.300 ft 010° 010° 4 kt METAR LFQQ 011000Z AUTO 01004KT 320V040 6000 FEW008 OVC023 05/04 Q1028 BECMG BKN010
10:30
I
5 °C 6 km 700 ft 010° 010° 7 kt METAR LFQQ 010930Z AUTO 01007KT 6000 BKN007 OVC024 05/04 Q1028 BECMG BKN010
10:00
M
5 °C 7 km 2.400 ft 020° 020° 7 kt METAR LFQQ 010900Z AUTO 02007KT 7000 SCT008 OVC024 05/04 Q1028 BECMG BKN010
09:30
M
5 °C 7 km 2.400 ft 030° 030° 6 kt METAR LFQQ 010830Z AUTO 03006KT 7000 FEW008 OVC024 05/04 Q1028 BECMG BKN010
09:00
I
5 °C 8 km 800 ft 040° 040° 8 kt METAR LFQQ 010800Z AUTO 04008KT 8000 OVC008 05/03 Q1028 TEMPO 3000 BR OVC003
08:30
I
5 °C 7 km 800 ft 040° 040° 7 kt METAR LFQQ 010730Z AUTO 04007KT 010V070 7000 OVC008 05/04 Q1027 TEMPO 3000 BR OVC003
08:00
I
4 °C 7 km 700 ft 030° 030° 6 kt METAR LFQQ 010700Z AUTO 03006KT 7000 OVC007 04/04 Q1027 TEMPO 3000 BR OVC003
07:30
I
4 °C 7 km 700 ft 030° 030° 10 kt METAR LFQQ 010630Z AUTO 03010KT 7000 OVC007 04/04 Q1027 TEMPO 3000 BR OVC003
07:00
I
4 °C 6 km 600 ft 030° 030° 9 kt METAR LFQQ 010600Z AUTO 03009KT 6000 OVC006 04/04 Q1027 TEMPO 3000 BR OVC003
06:30
I
4 °C 7 km 600 ft 030° 030° 11 kt METAR LFQQ 010530Z AUTO 03011KT 7000 OVC006 04/03 Q1027 TEMPO 3000 BR OVC003
06:00
I
5 °C 6 km 700 ft 040° 040° 9 kt METAR LFQQ 010500Z AUTO 04009KT 6000 OVC007 05/04 Q1027 TEMPO 3000 BR OVC003
05:30
I
5 °C 5 km 600 ft 030° 030° 6 kt METAR LFQQ 010430Z AUTO 03006KT 5000 BR OVC006 05/04 Q1027 TEMPO 0700 FG VV///
05:00
I
5 °C 6 km 500 ft 020° 020° 10 kt METAR LFQQ 010400Z AUTO 02010KT 6000 OVC005 05/04 Q1027 TEMPO 0700 FG VV///
04:30
L
5 °C 5 km 400 ft 020° 020° 7 kt METAR LFQQ 010330Z AUTO 02007KT 350V050 5000 BR OVC004 05/04 Q1027 TEMPO 0700 FG VV///
04:00
L
4 °C 5 km 300 ft 030° 030° 9 kt METAR LFQQ 010300Z AUTO 03009KT 5000 BR OVC003 04/04 Q1027 TEMPO 0700 FG VV///
03:30
L
5 °C 5 km 400 ft 040° 040° 7 kt METAR LFQQ 010230Z AUTO 04007KT 010V070 5000 BR OVC004 05/04 Q1027 TEMPO 0700 FG VV///
03:00
L
5 °C 5 km 400 ft 030° 030° 5 kt METAR LFQQ 010200Z AUTO 03005KT 360V070 5000 BR OVC004 05/05 Q1027 TEMPO 0700 FG VV///
02:30
L
4 °C 5 km 400 ft 010° 010° 6 kt METAR LFQQ 010130Z AUTO 01006KT 5000 BR BKN004 04/04 Q1027 TEMPO 0700 FG VV///
02:00
L
4 °C 5 km 400 ft 020° 020° 5 kt METAR LFQQ 010100Z AUTO 02005KT 5000 BR BKN004 04/04 Q1027 TEMPO 0700 FG VV///
01:30
L
5 °C 5 km 400 ft 020° 020° 5 kt METAR LFQQ 010030Z AUTO 02005KT 5000 BR OVC004 05/04 Q1027 TEMPO 0700 FG VV///
01:00
L
5 °C 5 km 400 ft 040° 040° 5 kt METAR LFQQ 010000Z AUTO 04005KT 5000 BR OVC004 05/05 Q1027 TEMPO 0700 FG VV///
00:30
L
5 °C 2,9 km 200 ft 050° 050° 8 kt METAR LFQQ 302330Z AUTO 05008KT 2900 BR OVC002 05/05 Q1027 TEMPO 0700 FG VV///
00:00
L
5 °C 3,2 km 200 ft 050° 050° 7 kt METAR LFQQ 302300Z AUTO 05007KT 3200 BR OVC002 05/05 Q1027 TEMPO 0700 FG VV///

30 november 2022

Tijd Code Weer Temp. Zicht Plafond Wind METAR/SPECI
23:30
L
6 °C 2,2 km - 030° 030° 7 kt METAR LFQQ 302230Z AUTO 03007KT 2200 BR VV/// 06/06 Q1027 TEMPO 0700 FG
23:00
L
6 °C 600 m - 360° 360° 4 kt METAR LFQQ 302200Z AUTO 36004KT 0700 0600 R26/0900N R08/0800N FG VV/// 06/06 Q1026 NOSIG
22:30
L
6 °C 600 m - 350° 350° 4 kt METAR LFQQ 302130Z AUTO 35004KT 320V040 0750 0600 R26/0900D R08/0750N FG VV/// 06/06 Q1026 NOSIG
22:00
L
6 °C 650 m - 320° 320° 4 kt METAR LFQQ 302100Z AUTO 32004KT 300V360 0800 0650 R26/2300U R08/0700D FG VV/// 06/05 Q1026 NOSIG
21:30
L
6 °C 600 m - 300° 300° 6 kt METAR LFQQ 302030Z AUTO 30006KT 1200 0600 R26/3700D R08/0750D BCFG VV/// 06/05 Q1026 TEMPO 0700 FG
21:00
L
6 °C 3,3 km 300 ft 320° 320° 2 kt METAR LFQQ 302000Z AUTO 32002KT 3300 BR BKN003 OVC017 06/06 Q1026 TEMPO 0700 FG VV///
20:30
L
6 °C 3,7 km 400 ft 350° 350° 2 kt METAR LFQQ 301930Z AUTO 35002KT 3700 BR BKN004 BKN019 OVC050 06/06 Q1026 TEMPO 0700 FG VV///
20:00
L
6 °C 3,6 km 400 ft 340° 340° 3 kt METAR LFQQ 301900Z AUTO 34003KT 3600 BR OVC004 06/06 Q1026 TEMPO 0700 FG VV///
19:30
L
6 °C 3,6 km 400 ft Var Var 3 kt METAR LFQQ 301830Z AUTO VRB03KT 3600 BR OVC004 06/06 Q1026 TEMPO 0700 FG VV///
19:00
L
6 °C 3,8 km 400 ft 340° 340° 2 kt METAR LFQQ 301800Z AUTO 34002KT 3800 BR OVC004 06/06 Q1026 NOSIG
18:30
L
6 °C 3,5 km 400 ft 340° 340° 3 kt METAR LFQQ 301730Z AUTO 34003KT 310V010 3500 BR BKN004 OVC054 06/06 Q1025 TEMPO 0700 FG VV///
18:00
L
6 °C 4,6 km 400 ft 350° 350° 3 kt METAR LFQQ 301700Z AUTO 35003KT 4600 BR BKN004 BKN046 OVC052 06/06 Q1025 TEMPO 0700 FG VV///
17:30
I
6 °C 5 km 500 ft 330° 330° 4 kt METAR LFQQ 301630Z AUTO 33004KT 5000 BR OVC005 06/06 Q1025 TEMPO 0700 FG VV///
17:00
L
6 °C 4,3 km 400 ft Var Var 1 kt METAR LFQQ 301600Z AUTO VRB01KT 4300 BR OVC004 06/06 Q1025 BECMG 2000 BR
16:30
L
6 °C 3 km 300 ft 360° 360° 3 kt METAR LFQQ 301530Z AUTO 36003KT 330V030 3000 BR OVC003 06/06 Q1025 NOSIG
16:00
L
6 °C 2,7 km 200 ft 010° 010° 4 kt METAR LFQQ 301500Z AUTO 01004KT 2700 BR OVC002 06/06 Q1025 NOSIG
15:30
L
6 °C 2,8 km 300 ft 010° 010° 3 kt METAR LFQQ 301430Z AUTO 01003KT 310V060 2800 BR OVC003 06/06 Q1025 BECMG 9999 NSW OVC007
15:00
L
6 °C 3,4 km 300 ft Var Var 3 kt METAR LFQQ 301400Z AUTO VRB03KT 3400 BR OVC003 06/06 Q1025 BECMG 9999 NSW OVC007
14:30
L
6 °C 3,3 km 300 ft 040° 040° 6 kt METAR LFQQ 301330Z AUTO 04006KT 3300 BR OVC003 06/06 Q1025 BECMG 9999 NSW OVC007
14:00
L
7 °C 3,8 km 300 ft 040° 040° 5 kt METAR LFQQ 301300Z AUTO 04005KT 3800 BR BKN003 OVC007 07/07 Q1024 BECMG 9999 NSW OVC007
13:30
L
6 °C 4 km 400 ft 020° 020° 4 kt METAR LFQQ 301230Z AUTO 02004KT 330V060 4000 BR OVC004 06/06 Q1024 BECMG 9999 NSW OVC007
13:00
L
6 °C 3,8 km - 360° 360° 4 kt METAR LFQQ 301200Z AUTO 36004KT 320V070 3800 BR VV/// 06/06 Q1024 BECMG 9999 NSW OVC007
12:30
L
6 °C 500 m - Var 000° 0 kt METAR LFQQ 301130Z AUTO 00000KT 1100 0500 R26/0700N R08/1700U BCFG VV/// 06/06 Q1025 BECMG 9999 NSW OVC007
12:00
L
6 °C 400 m - Var Var 2 kt METAR LFQQ 301100Z AUTO VRB02KT 0450 0400 R26/0450D R08/0800U FG VV/// 06/06 Q1024 BECMG 9999 NSW OVC007
11:30
L
6 °C 300 m - Var Var 1 kt METAR LFQQ 301030Z AUTO VRB01KT 0350 0300 R26/0450N R08/0450N FG VV/// 06/06 Q1025 BECMG 9999 NSW OVC007
11:00
L
6 °C 450 m - Var Var 3 kt METAR LFQQ 301000Z AUTO VRB03KT 0500 0450 R26/0550N R08/0800U FG VV/// 06/06 Q1025 BECMG 9999 NSW OVC007
10:30
L
6 °C 1,1 km - Var Var 3 kt METAR LFQQ 300930Z AUTO VRB03KT 1200 1100 R26/2200D R08/1700D BR VV/// 06/06 Q1025 BECMG 9999 NSW OVC007
10:00
L
6 °C 1,2 km - 040° 040° 4 kt METAR LFQQ 300900Z AUTO 04004KT 360V080 2600 1200 R26/1700D R08/3200D BR VV/// 06/06 Q1024 BECMG 9999 NSW OVC007
09:30
L
6 °C 2,6 km 200 ft 030° 030° 3 kt METAR LFQQ 300830Z AUTO 03003KT 360V070 2600 BR OVC002 06/06 Q1024 BECMG 7000 NSW OVC007
09:00
L
6 °C 3,5 km 300 ft 280° 280° 5 kt METAR LFQQ 300800Z AUTO 28005KT 3500 BR BKN003 OVC044 06/06 Q1024 BECMG 7000 NSW OVC007
08:30
L
5 °C 4,4 km 400 ft 280° 280° 3 kt METAR LFQQ 300730Z AUTO 28003KT 4400 BR BKN004 OVC042 05/05 Q1024 BECMG 9999 NSW OVC007
08:00
I
5 °C 6 km 500 ft Var Var 2 kt METAR LFQQ 300700Z AUTO VRB02KT 6000 BKN005 OVC043 05/05 Q1024 NOSIG
07:30
I
5 °C 5 km 500 ft 350° 350° 1 kt METAR LFQQ 300630Z AUTO 35001KT 5000 BR OVC005 05/05 Q1023 NOSIG
07:00
I
5 °C 5 km 600 ft 340° 340° 1 kt METAR LFQQ 300600Z AUTO 34001KT 5000 BR OVC006 05/05 Q1023 NOSIG
06:30
I
5 °C 4,1 km 700 ft 060° 060° 2 kt METAR LFQQ 300530Z AUTO 06002KT 4100 BR BKN007 OVC043 05/05 Q1023 TEMPO 0500 FG VV///
06:00
I
5 °C 3,4 km 700 ft 050° 050° 2 kt METAR LFQQ 300500Z AUTO 05002KT 3400 BR BKN007 OVC045 05/05 Q1023 TEMPO 0500 FG VV///
05:30
I
5 °C 3,3 km 700 ft Var 000° 0 kt METAR LFQQ 300430Z AUTO 00000KT 3300 BR BKN007 OVC044 05/05 Q1023 TEMPO 0500 FG VV///
05:00
I
5 °C 3,7 km 700 ft Var 000° 0 kt METAR LFQQ 300400Z AUTO 00000KT 3700 BR BKN007 OVC043 05/05 Q1023 TEMPO 0500 FG VV///
04:30
I
5 °C 4,4 km 700 ft Var Var 2 kt METAR LFQQ 300330Z AUTO VRB02KT 4400 BR BKN007 OVC041 05/05 Q1023 TEMPO 0500 FG VV///
04:00
I
5 °C 4,7 km 700 ft Var Var 1 kt METAR LFQQ 300300Z AUTO VRB01KT 4700 BR OVC007 05/05 Q1023 TEMPO 0500 FG VV///
03:30
I
5 °C 5 km 500 ft Var 000° 0 kt METAR LFQQ 300230Z AUTO 00000KT 5000 BR OVC005 05/05 Q1023 TEMPO 0500 FG VV///
03:00
L
5 °C 3,9 km 200 ft Var 000° 0 kt METAR LFQQ 300200Z AUTO 00000KT 3900 BR OVC002 05/05 Q1023 TEMPO 0300 BECMG VV///
02:30
L
5 °C 2,7 km - Var Var 3 kt METAR LFQQ 300130Z AUTO VRB03KT 2700 BR VV/// 05/05 Q1023 TEMPO 0300
02:00
L
5 °C 1,6 km - 220° 220° 3 kt METAR LFQQ 300100Z AUTO 22003KT 190V250 1600 BR VV/// 05/05 Q1023 TEMPO 0300
01:30
L
5 °C 1,3 km - Var Var 3 kt METAR LFQQ 300030Z AUTO VRB03KT 1500 1300 R26/2700U R08/2100D BR VV/// 05/05 Q1023 TEMPO 0300
01:00
L
5 °C 1,3 km - 240° 240° 3 kt METAR LFQQ 300000Z AUTO 24003KT 210V280 1400 1300 R26/1600D R08/1700D BR VV/// 05/05 Q1023 TEMPO 0300
00:30
L
5 °C 900 m - Var Var 3 kt METAR LFQQ 292330Z AUTO VRB03KT 1100 0900 R26/1500D R08/1900U BCFG VV/// 05/05 Q1023 TEMPO 0300
00:00
L
5 °C 750 m - Var Var 3 kt METAR LFQQ 292300Z AUTO VRB03KT 0800 0750 R26/1100D R08/0900N FG VV/// 05/05 Q1023 TEMPO 0300

29 november 2022

Tijd Code Weer Temp. Zicht Plafond Wind METAR/SPECI
23:30
L
5 °C 750 m - Var Var 3 kt METAR LFQQ 292230Z AUTO VRB03KT 0800 0750 R26/1200N R08/1000N FG VV/// 05/05 Q1023 TEMPO 0300
23:00
L
5 °C 800 m - Var Var 2 kt METAR LFQQ 292200Z AUTO VRB02KT 0900 0800 R26/1100D R08/1000U FG VV/// 05/05 Q1023 TEMPO 0300
22:30
L
5 °C 900 m - Var Var 3 kt METAR LFQQ 292130Z AUTO VRB03KT 0900 R26/1100D R08/1300U FG VV/// 05/05 Q1022 TEMPO 0300
22:00
L
5 °C 700 m - 200° 200° 3 kt METAR LFQQ 292100Z AUTO 20003KT 160V230 0800 0700 R26/0900D R08/0900D FG VV/// 05/05 Q1022 TEMPO 0300
21:30
L
5 °C 700 m - 210° 210° 3 kt METAR LFQQ 292030Z AUTO 21003KT 160V230 0800 0700 R26/0900N R08/0800D FG VV/// 05/05 Q1022 TEMPO 0300
21:00
L
5 °C 750 m - 210° 210° 5 kt METAR LFQQ 292000Z AUTO 21005KT 0750 R26/1000U R08/0900N FG VV/// 05/05 Q1022 TEMPO 0300
20:30
L
5 °C 700 m - 210° 210° 4 kt METAR LFQQ 291930Z AUTO 21004KT 0800 0700 R26/1400U R08/0900D FG VV/// 05/05 Q1022 TEMPO 0300
20:00
L
5 °C 750 m - Var Var 2 kt METAR LFQQ 291900Z AUTO VRB02KT 0750 R26/1000U R08/0900N FG VV/// 05/05 Q1022 TEMPO 0300
19:30
L
5 °C 750 m - 170° 170° 5 kt METAR LFQQ 291830Z AUTO 17005KT 0800 0750 R26/1000D R08/0900U FG VV/// 05/05 Q1022 TEMPO 0300
19:00
L
5 °C 700 m - 160° 160° 3 kt METAR LFQQ 291800Z AUTO 16003KT 120V190 0800 0700 R26/1000N R08/0900N FG VV/// 05/05 Q1021 TEMPO 0300
18:30
L
5 °C 700 m - 180° 180° 4 kt METAR LFQQ 291730Z AUTO 18004KT 0700 R26/0900N R08/0800N FG VV/// 05/05 Q1021 TEMPO 0300
18:00
L
5 °C 550 m - 180° 180° 3 kt METAR LFQQ 291700Z AUTO 18003KT 140V210 0600 0550 R26/0800N R08/0650N FG VV/// 05/05 Q1021 TEMPO 0300
17:30
L
5 °C 500 m - Var Var 2 kt METAR LFQQ 291630Z AUTO VRB02KT 0550 0500 R26/0650N R08/0550N FG VV/// 05/05 Q1021 TEMPO 0300
17:00
L
5 °C 550 m - 120° 120° 3 kt METAR LFQQ 291600Z AUTO 12003KT 090V160 0600 0550 R26/0700N R08/0700N FG VV/// 05/05 Q1021 TEMPO 0300
16:30
L
5 °C 400 m - 140° 140° 4 kt METAR LFQQ 291530Z AUTO 14004KT 0450 0400 R26/0550N R08/0550N FG VV/// 05/05 Q1021 TEMPO 0300
16:00
L
5 °C 350 m - 110° 110° 4 kt METAR LFQQ 291500Z AUTO 11004KT 0400 0350 R26/0500D R08/0450N FG VV/// 05/05 Q1020 TEMPO 0300
15:30
L
6 °C 350 m - 120° 120° 3 kt METAR LFQQ 291430Z AUTO 12003KT 080V150 0350 R26/0450N R08/0400N FG VV/// 06/06 Q1020 NOSIG
15:00
L
6 °C 350 m - 100° 100° 4 kt METAR LFQQ 291400Z AUTO 10004KT 0350 R26/0450N R08/0400N FG VV/// 06/06 Q1020 TEMPO 1500 BR
14:30
L
6 °C 300 m - Var Var 2 kt METAR LFQQ 291330Z AUTO VRB02KT 0300 R26/0400N R08/0350N FG VV/// 06/06 Q1020 TEMPO 1500 BR
14:00
L
5 °C 250 m - Var Var 3 kt METAR LFQQ 291300Z AUTO VRB03KT 0300 0250 R26/0400N R08/0350N FG VV/// 05/05 Q1020 TEMPO 1500 BR
13:30
L
5 °C 300 m - Var Var 2 kt METAR LFQQ 291230Z AUTO VRB02KT 0350 0300 R26/0450D R08/0375N FG VV/// 05/05 Q1020 TEMPO 1500 BR
13:00
L
5 °C 350 m - 210° 210° 4 kt METAR LFQQ 291200Z AUTO 21004KT 160V240 0350 R26/0650U R08/0450N FG VV/// 05/05 Q1020 NOSIG
12:30
L
5 °C 400 m - 190° 190° 4 kt METAR LFQQ 291130Z AUTO 19004KT 0400 R26/0600U R08/0500D FG VV/// 05/05 Q1020 TEMPO 0300
12:00
L
5 °C 350 m - 190° 190° 3 kt METAR LFQQ 291100Z AUTO 19003KT 0350 R26/0550N R08/0400N FG VV/// 05/05 Q1020 TEMPO 1500 BR
11:30
L
4 °C 250 m - 190° 190° 3 kt METAR LFQQ 291030Z AUTO 19003KT 0300 0250 R26/0325N R08/0350N FG VV/// 04/04 Q1020 TEMPO 1500 BR
11:00
L
2 °C 300 m - 150° 150° 3 kt METAR LFQQ 291000Z AUTO 15003KT 120V230 0300 R26/0400N R08/0375N FG VV/// 02/02 Q1019 NOSIG

Wij en derden volgen je internetgedrag op onze website met cookies. Als je doorgaat, gaan we ervan uit dat je akkoord gaat met onze cookiebeleid.